GMMX/RAK METAR and TAF weather

Enter ICAO airport designator
Station Type Date Time Source
GMMX METAR 2023/01/29 19:30 UTC NOAA

GMMX 291930Z 01005KT 340V060 9999 FEW030 SCT080 12/02 Q1018 NOSIG


Station Type Date Time Source
GMMX Decoded METAR 2023/01/29 19:30 UTC NOAA

Marrakech, Morocco (GMMX) 31-37N 008-02W 466M
Jan 29, 2023 - 02:30 PM EST / 2023.01.29 1930 UTC
Wind: from the N (010 degrees) at 6 MPH (5 KT) (direction variable):0
Visibility: greater than 7 mile(s):0
Sky conditions: partly cloudy
Temperature: 53 F (12 C)
Dew Point: 35 F (2 C)
Relative Humidity: 50%
Pressure (altimeter): 30.06 in. Hg (1018 hPa)
ob: GMMX 291930Z 01005KT 340V060 9999 FEW030 SCT080 12/02 Q1018 NOSIG
cycle: 19

Station Type Date Time Source
GMMX TAF 2023/01/29 18:18 UTC NOAA

TAF GMMX 291700Z 2918/3024 06006KT CAVOK
TEMPO 3016/3021 34018KT

Example: see airport list